Time;durP1;ratioP1;P1;durP2;ratioP2;P2;SDS_P1;SDS_P2;PMS_P1;PMS_P2;Temp;Humidity;BMP_temperature;BMP_pressure;BME280_temperature;BME280_humidity;BME280_pressure;Samples;Min_cycle;Max_cycle;Signal;HPM_P1;HPM_P2
2024/02/21 00:00:18;;;;;;;2.78;0.73;;;2.50;99.90;;;;;;5051538;28;20108;-75
2024/02/21 00:02:44;;;;;;;0.75;0.60;;;2.40;99.90;;;;;;5051766;28;20024;-75
2024/02/21 00:05:09;;;;;;;2.05;0.50;;;2.40;99.90;;;;;;5050449;28;20022;-76
2024/02/21 00:07:35;;;;;;;3.45;0.63;;;2.40;99.90;;;;;;5050445;28;20075;-75
2024/02/21 00:10:01;;;;;;;0.60;0.40;;;2.40;99.90;;;;;;5051536;28;20407;-75
2024/02/21 00:12:26;;;;;;;4.80;0.80;;;2.40;99.90;;;;;;5051600;28;20021;-76
2024/02/21 00:14:52;;;;;;;1.13;0.75;;;2.40;99.90;;;;;;5051559;28;20032;-75
2024/02/21 00:17:17;;;;;;;3.22;0.85;;;2.30;99.90;;;;;;5051642;28;20048;-76
2024/02/21 00:19:43;;;;;;;0.80;0.60;;;2.40;99.90;;;;;;5051629;28;20372;-75
2024/02/21 00:22:09;;;;;;;1.98;1.08;;;2.40;99.90;;;;;;5051409;28;20087;-75
2024/02/21 00:24:34;;;;;;;1.98;0.80;;;2.60;99.90;;;;;;5051519;28;20025;-76
2024/02/21 00:27:00;;;;;;;1.33;1.02;;;2.40;99.90;;;;;;5066917;28;20059;-76
2024/02/21 00:29:27;;;;;;;1.73;1.38;;;2.40;99.90;;;;;;5050263;28;20108;-76
2024/02/21 00:31:52;;;;;;;5.35;1.27;;;2.40;99.90;;;;;;5051317;28;20017;-76
2024/02/21 00:34:18;;;;;;;3.97;1.10;;;2.30;99.90;;;;;;5051493;28;20032;-75
2024/02/21 00:36:44;;;;;;;1.38;1.02;;;2.40;99.90;;;;;;5051395;28;20028;-75
2024/02/21 00:39:09;;;;;;;5.03;1.50;;;2.40;99.90;;;;;;5051394;28;20053;-75
2024/02/21 00:41:35;;;;;;;3.33;0.80;;;2.50;99.90;;;;;;5066546;28;20036;-75
2024/02/21 00:44:01;;;;;;;3.22;0.82;;;2.50;99.90;;;;;;5053114;28;20021;-76
2024/02/21 00:46:26;;;;;;;7.18;2.28;;;2.50;99.90;;;;;;5054979;28;20029;-76
2024/02/21 00:48:52;;;;;;;2.63;1.05;;;2.60;99.90;;;;;;5055276;28;20029;-76
2024/02/21 00:51:17;;;;;;;6.65;0.95;;;2.60;99.90;;;;;;5054975;28;20029;-75
2024/02/21 00:53:43;;;;;;;4.43;1.83;;;2.60;99.90;;;;;;5070559;28;20538;-76
2024/02/21 00:56:09;;;;;;;2.75;1.30;;;2.60;99.90;;;;;;5055027;28;20403;-76
2024/02/21 00:58:34;;;;;;;3.70;1.35;;;2.60;99.90;;;;;;5070378;28;20032;-75
2024/02/21 01:01:03;;;;;;;1.50;0.90;;;2.60;99.90;;;;;;5054740;28;20021;-74
2024/02/21 01:03:29;;;;;;;2.13;1.15;;;2.70;99.90;;;;;;5054976;28;20025;-75
2024/02/21 01:05:54;;;;;;;1.00;0.68;;;2.60;99.90;;;;;;5054818;28;20566;-76
2024/02/21 01:08:20;;;;;;;3.13;1.00;;;2.60;99.90;;;;;;5054743;28;20056;-75
2024/02/21 01:10:46;;;;;;;2.28;1.25;;;2.60;99.90;;;;;;5054577;28;20021;-75
2024/02/21 01:13:11;;;;;;;2.80;1.02;;;2.70;99.90;;;;;;5053591;28;20021;-76
2024/02/21 01:15:37;;;;;;;2.50;0.95;;;2.70;99.90;;;;;;5069994;28;20021;-76
2024/02/21 01:18:03;;;;;;;1.13;0.85;;;2.70;99.90;;;;;;5054718;28;20021;-75
2024/02/21 01:20:28;;;;;;;2.08;1.15;;;2.70;99.90;;;;;;5054466;28;20036;-76
2024/02/21 01:22:54;;;;;;;6.30;1.75;;;2.70;99.90;;;;;;5054619;28;20017;-75
2024/02/21 01:25:20;;;;;;;6.70;2.55;;;2.80;99.90;;;;;;5054422;28;20119;-76
2024/02/21 01:27:45;;;;;;;7.22;2.65;;;2.80;99.90;;;;;;5053319;28;20025;-75
2024/02/21 01:30:11;;;;;;;4.10;2.00;;;2.90;99.90;;;;;;5054183;28;20032;-75
2024/02/21 01:32:37;;;;;;;2.78;1.83;;;2.90;99.90;;;;;;5054445;28;20021;-76
2024/02/21 01:35:03;;;;;;;3.35;1.58;;;3.00;99.90;;;;;;5054384;28;20017;-76
2024/02/21 01:37:28;;;;;;;2.58;1.73;;;3.00;99.90;;;;;;5053112;28;20049;-75
2024/02/21 01:39:54;;;;;;;2.30;2.00;;;3.10;99.90;;;;;;5054344;28;20052;-75
2024/02/21 01:42:20;;;;;;;3.13;1.90;;;3.10;99.90;;;;;;5053983;28;20507;-76
2024/02/21 01:44:45;;;;;;;3.20;1.45;;;3.10;99.90;;;;;;5052716;28;20039;-76
2024/02/21 01:47:13;;;;;;;2.22;1.73;;;3.10;99.90;;;;;;5054364;28;20024;-76
2024/02/21 01:49:42;;;;;;;2.40;2.05;;;3.20;99.90;;;;;;5069408;28;20017;-76
2024/02/21 01:52:10;;;;;;;3.40;1.40;;;3.20;99.90;;;;;;5053883;28;20033;-76
2024/02/21 01:54:35;;;;;;;1.80;1.48;;;3.20;99.90;;;;;;5068640;28;20056;-75
2024/02/21 01:57:01;;;;;;;1.50;1.08;;;3.20;99.90;;;;;;5053525;28;20154;-76
2024/02/21 01:59:28;;;;;;;8.00;1.52;;;3.10;99.90;;;;;;5052605;28;20051;-76
2024/02/21 02:01:56;;;;;;;2.90;1.90;;;3.10;99.90;;;;;;5053738;28;20052;-75
2024/02/21 02:04:22;;;;;;;2.45;1.45;;;3.10;99.90;;;;;;5053853;28;20025;-76
2024/02/21 02:06:49;;;;;;;2.22;1.30;;;3.10;99.90;;;;;;5069029;28;20032;-76
2024/02/21 02:09:14;;;;;;;2.80;1.30;;;3.10;99.90;;;;;;5052333;28;20108;-76
2024/02/21 02:11:40;;;;;;;2.40;1.42;;;3.10;99.90;;;;;;5053504;28;20463;-76
2024/02/21 02:14:06;;;;;;;1.92;1.73;;;3.20;99.90;;;;;;5053633;28;20480;-75
2024/02/21 02:16:31;;;;;;;10.13;1.30;;;3.20;99.90;;;;;;5053523;28;20419;-75
2024/02/21 02:18:57;;;;;;;1.55;1.38;;;3.20;99.90;;;;;;5053628;28;20033;-76
2024/02/21 02:21:29;;;;;;;1.55;1.45;;;3.20;99.90;;;;;;5053344;28;20025;-76
2024/02/21 02:23:55;;;;;;;3.50;1.80;;;3.20;99.90;;;;;;5053499;28;20033;-76
2024/02/21 02:26:20;;;;;;;3.95;1.27;;;3.20;99.90;;;;;;5053302;28;20032;-75
2024/02/21 02:28:46;;;;;;;3.72;1.33;;;3.30;99.90;;;;;;5053257;28;20387;-76
2024/02/21 02:31:12;;;;;;;1.25;1.10;;;3.50;99.90;;;;;;5053132;28;20043;-75
2024/02/21 02:33:38;;;;;;;1.75;1.20;;;3.60;99.90;;;;;;5053328;28;20025;-75
2024/02/21 02:36:03;;;;;;;2.17;1.20;;;3.50;99.90;;;;;;5051878;28;20430;-75
2024/02/21 02:38:29;;;;;;;1.42;1.25;;;3.60;99.90;;;;;;5053005;28;20051;-75
2024/02/21 02:40:55;;;;;;;3.35;1.00;;;3.50;99.90;;;;;;5052572;28;20418;-76
2024/02/21 02:43:20;;;;;;;0.90;0.90;;;3.60;99.90;;;;;;5050937;28;20033;-75
2024/02/21 02:45:46;;;;;;;5.35;1.65;;;3.50;99.90;;;;;;5052518;28;20090;-76
2024/02/21 02:48:11;;;;;;;1.75;1.20;;;3.50;99.90;;;;;;5051650;28;20066;-75
2024/02/21 02:50:37;;;;;;;3.58;1.45;;;3.50;99.90;;;;;;5051510;28;20427;-76
2024/02/21 02:53:03;;;;;;;2.40;1.65;;;3.50;99.90;;;;;;5051663;28;20399;-75
2024/02/21 02:55:28;;;;;;;8.00;2.08;;;3.50;99.90;;;;;;5052599;28;20509;-76
2024/02/21 02:57:55;;;;;;;2.75;1.70;;;3.40;99.90;;;;;;5051590;28;20032;-76
2024/02/21 03:00:21;;;;;;;5.07;2.30;;;3.40;99.90;;;;;;5052594;28;20071;-75
2024/02/21 03:02:49;;;;;;;2.05;1.23;;;3.40;99.90;;;;;;5051455;28;20032;-76
2024/02/21 03:05:17;;;;;;;7.22;1.65;;;3.40;99.90;;;;;;5052422;28;20025;-75
2024/02/21 03:07:43;;;;;;;2.60;1.50;;;3.40;99.90;;;;;;5052824;28;20033;-76
2024/02/21 03:10:10;;;;;;;3.42;1.15;;;3.40;99.90;;;;;;5051110;28;20055;-76
2024/02/21 03:12:35;;;;;;;4.55;1.30;;;3.40;99.90;;;;;;5051284;28;20028;-76
2024/02/21 03:15:02;;;;;;;2.08;1.40;;;3.40;99.90;;;;;;5051176;28;20017;-75
2024/02/21 03:17:27;;;;;;;2.67;1.52;;;3.50;99.90;;;;;;5051184;28;20021;-76
2024/02/21 03:19:55;;;;;;;2.67;1.60;;;3.40;99.90;;;;;;5051102;28;20032;-76
2024/02/21 03:22:21;;;;;;;1.92;1.52;;;3.50;99.90;;;;;;5050878;28;20048;-75
2024/02/21 03:24:46;;;;;;;7.57;2.20;;;3.50;99.90;;;;;;5050916;28;20071;-76
2024/02/21 03:27:12;;;;;;;2.17;1.30;;;3.40;99.90;;;;;;5052145;28;20049;-76
2024/02/21 03:29:38;;;;;;;5.30;1.70;;;3.50;99.90;;;;;;5050948;28;20416;-76
2024/02/21 03:32:03;;;;;;;3.92;1.45;;;3.50;99.90;;;;;;5052001;28;20029;-76
2024/02/21 03:34:29;;;;;;;6.32;1.55;;;3.50;99.90;;;;;;5052082;28;20032;-76
2024/02/21 03:36:55;;;;;;;6.53;1.73;;;3.50;99.90;;;;;;5052109;28;20104;-75
2024/02/21 03:39:21;;;;;;;2.38;1.17;;;3.60;99.90;;;;;;5052104;28;20155;-76
2024/02/21 03:41:47;;;;;;;4.88;1.60;;;3.60;99.90;;;;;;5051813;28;20501;-76
2024/02/21 03:44:13;;;;;;;3.28;1.55;;;3.70;99.90;;;;;;5050814;28;20056;-76
2024/02/21 03:46:38;;;;;;;2.15;1.40;;;3.70;99.90;;;;;;5055638;22;20054;-77
2024/02/21 03:49:04;;;;;;;1.67;1.08;;;3.80;99.90;;;;;;5047557;28;20028;-75
2024/02/21 03:51:29;;;;;;;3.95;1.48;;;3.80;99.90;;;;;;5032152;28;20395;-75
2024/02/21 03:53:55;;;;;;;1.45;1.10;;;3.90;99.90;;;;;;5030931;28;20033;-75
2024/02/21 03:56:21;;;;;;;3.03;1.30;;;4.00;99.90;;;;;;5032114;28;20049;-74
2024/02/21 03:58:46;;;;;;;4.45;1.83;;;4.10;99.90;;;;;;5030961;28;20028;-75
2024/02/21 04:01:14;;;;;;;4.20;1.95;;;4.10;99.90;;;;;;5031053;28;20029;-75
2024/02/21 04:03:40;;;;;;;5.60;1.67;;;4.20;99.90;;;;;;5032417;28;20026;-76
2024/02/21 04:06:06;;;;;;;1.77;1.27;;;4.20;99.90;;;;;;5032188;28;20116;-75
2024/02/21 04:08:31;;;;;;;4.32;1.33;;;4.20;99.90;;;;;;5031995;28;20025;-75
2024/02/21 04:10:57;;;;;;;3.17;1.33;;;4.10;99.90;;;;;;5030612;28;20033;-74
2024/02/21 04:13:22;;;;;;;3.10;1.95;;;4.10;99.90;;;;;;5030894;28;20079;-75
2024/02/21 04:15:48;;;;;;;4.38;1.42;;;4.00;99.90;;;;;;5031821;28;20071;-74
2024/02/21 04:18:14;;;;;;;3.63;1.95;;;4.00;99.90;;;;;;5032274;28;20028;-75
2024/02/21 04:20:40;;;;;;;2.75;1.35;;;3.90;99.90;;;;;;5036075;28;20018;-75
2024/02/21 04:23:06;;;;;;;3.92;1.63;;;3.90;99.90;;;;;;5036209;28;20024;-75
2024/02/21 04:25:31;;;;;;;1.55;1.25;;;3.80;99.90;;;;;;5036112;28;20021;-73
2024/02/21 04:27:57;;;;;;;2.50;1.20;;;3.80;99.90;;;;;;5035992;28;20032;-74
2024/02/21 04:30:23;;;;;;;2.90;1.55;;;3.70;99.90;;;;;;5035672;28;20027;-76
2024/02/21 04:32:48;;;;;;;2.60;1.15;;;3.70;99.90;;;;;;5035976;28;20018;-76
2024/02/21 04:35:14;;;;;;;3.60;1.88;;;3.70;99.90;;;;;;5036059;28;20083;-76
2024/02/21 04:37:40;;;;;;;6.93;1.42;;;3.80;99.90;;;;;;5035771;28;20468;-74
2024/02/21 04:40:06;;;;;;;6.13;1.85;;;3.80;99.90;;;;;;5034279;28;20034;-75
2024/02/21 04:42:32;;;;;;;3.47;1.25;;;3.80;99.90;;;;;;5035824;28;20086;-74
2024/02/21 04:44:58;;;;;;;3.45;1.25;;;3.70;99.90;;;;;;5034281;28;20578;-74
2024/02/21 04:47:24;;;;;;;2.55;1.30;;;3.70;99.90;;;;;;5035609;28;20104;-76
2024/02/21 04:49:50;;;;;;;4.47;1.35;;;3.70;99.90;;;;;;5035954;28;20022;-73
2024/02/21 04:52:16;;;;;;;4.57;1.92;;;3.70;99.90;;;;;;5034479;28;20484;-75
2024/02/21 04:54:41;;;;;;;4.43;1.73;;;3.70;99.90;;;;;;5035358;28;20100;-74
2024/02/21 04:57:07;;;;;;;3.85;1.52;;;3.70;99.90;;;;;;5035501;28;20136;-75
2024/02/21 04:59:35;;;;;;;3.53;1.42;;;3.70;99.90;;;;;;5034044;28;20379;-74
2024/02/21 05:02:00;;;;;;;3.83;1.60;;;3.70;99.90;;;;;;5035613;28;20025;-74
2024/02/21 05:04:26;;;;;;;8.50;1.20;;;3.80;99.90;;;;;;5034091;28;20027;-74
2024/02/21 05:06:51;;;;;;;2.35;1.15;;;3.80;99.90;;;;;;5035428;28;20037;-75
2024/02/21 05:09:17;;;;;;;1.75;1.20;;;3.80;99.90;;;;;;5035073;28;20479;-75
2024/02/21 05:11:43;;;;;;;3.53;1.33;;;3.80;99.90;;;;;;5034938;28;20395;-76
2024/02/21 05:14:08;;;;;;;3.83;1.63;;;3.80;99.90;;;;;;5035214;28;20036;-75
2024/02/21 05:16:34;;;;;;;3.97;1.08;;;3.80;99.90;;;;;;5035028;28;20120;-75
2024/02/21 05:18:59;;;;;;;2.80;1.65;;;3.80;99.90;;;;;;5035074;28;20051;-75
2024/02/21 05:21:25;;;;;;;3.80;1.25;;;3.70;99.90;;;;;;5034857;28;20021;-75
2024/02/21 05:23:51;;;;;;;4.43;2.28;;;3.70;99.90;;;;;;5035237;28;20109;-76
2024/02/21 05:26:24;;;;;;;12.45;2.85;;;3.70;99.90;;;;;;5034719;28;20543;-76
2024/02/21 05:28:50;;;;;;;4.90;1.98;;;3.70;99.90;;;;;;5034905;28;20546;-75
2024/02/21 05:31:17;;;;;;;3.38;1.80;;;3.60;99.90;;;;;;5033381;28;20025;-75
2024/02/21 05:33:44;;;;;;;5.25;1.98;;;3.60;99.90;;;;;;5033565;28;20399;-74
2024/02/21 05:36:10;;;;;;;4.82;2.05;;;3.60;99.90;;;;;;5033369;28;20029;-75
2024/02/21 05:38:36;;;;;;;9.82;2.20;;;3.50;99.90;;;;;;5034619;28;20033;-75
2024/02/21 05:41:02;;;;;;;2.67;1.98;;;3.60;99.90;;;;;;5034154;28;20026;-74
2024/02/21 05:43:28;;;;;;;3.80;1.55;;;3.60;99.90;;;;;;5033362;28;20022;-74
2024/02/21 05:45:54;;;;;;;2.58;1.70;;;4.40;99.90;;;;;;5033445;28;20034;-74
2024/02/21 05:48:20;;;;;;;3.45;1.63;;;4.40;99.90;;;;;;5036378;28;20053;-75
2024/02/21 05:50:46;;;;;;;5.22;1.92;;;4.20;99.90;;;;;;5053241;28;20021;-76
2024/02/21 05:53:12;;;;;;;4.22;1.80;;;4.00;99.90;;;;;;5054602;28;20021;-75
2024/02/21 05:55:38;;;;;;;5.43;2.00;;;3.90;99.90;;;;;;5058268;28;20017;-75
2024/02/21 05:58:04;;;;;;;3.67;2.38;;;3.70;99.90;;;;;;5054330;28;20018;-74
2024/02/21 06:00:29;;;;;;;8.48;2.67;;;3.60;99.90;;;;;;5037753;28;20385;-75
2024/02/21 06:02:55;;;;;;;6.68;2.20;;;3.60;99.90;;;;;;5034452;28;20021;-74
2024/02/21 06:05:21;;;;;;;4.60;2.10;;;3.60;99.90;;;;;;5034352;28;20017;-74
2024/02/21 06:07:46;;;;;;;2.80;1.55;;;3.60;99.90;;;;;;5034259;28;20121;-75
2024/02/21 06:10:12;;;;;;;5.32;2.33;;;3.60;99.90;;;;;;5034036;28;20511;-75
2024/02/21 06:12:38;;;;;;;3.55;1.88;;;3.50;99.90;;;;;;5033103;28;20484;-75
2024/02/21 06:15:04;;;;;;;3.35;1.48;;;3.50;99.90;;;;;;5032893;28;20037;-75
2024/02/21 06:17:29;;;;;;;4.13;1.63;;;3.50;99.90;;;;;;5033986;28;20388;-74
2024/02/21 06:19:55;;;;;;;3.25;1.90;;;3.60;99.90;;;;;;5034035;28;20021;-73
2024/02/21 06:22:21;;;;;;;4.05;2.53;;;3.60;99.90;;;;;;5032665;28;20484;-74
2024/02/21 06:24:46;;;;;;;3.90;2.17;;;3.60;99.90;;;;;;5032699;28;20025;-75
2024/02/21 06:27:12;;;;;;;2.78;2.33;;;3.60;99.90;;;;;;5033945;28;20052;-76
2024/02/21 06:29:38;;;;;;;6.38;2.28;;;3.50;99.90;;;;;;5034012;28;20057;-75
2024/02/21 06:32:04;;;;;;;3.33;1.85;;;3.70;99.90;;;;;;5033880;28;20025;-74
2024/02/21 06:34:29;;;;;;;2.65;2.10;;;3.70;99.90;;;;;;5032389;28;20021;-73
2024/02/21 06:36:55;;;;;;;3.40;2.25;;;3.80;99.90;;;;;;5033732;28;20021;-75
2024/02/21 06:39:23;;;;;;;2.22;1.88;;;3.90;99.90;;;;;;5033786;28;20030;-75
2024/02/21 06:41:50;;;;;;;3.83;1.95;;;4.10;99.90;;;;;;5033143;28;20022;-75
2024/02/21 06:44:16;;;;;;;5.55;2.42;;;4.10;99.90;;;;;;5032489;28;20033;-73
2024/02/21 06:46:42;;;;;;;7.55;2.00;;;4.10;99.90;;;;;;5032032;28;20113;-75
2024/02/21 06:49:07;;;;;;;4.38;2.25;;;4.10;99.90;;;;;;5033999;28;20108;-77
2024/02/21 06:51:34;;;;;;;4.88;1.80;;;4.00;99.90;;;;;;5032689;28;20079;-76
2024/02/21 06:54:00;;;;;;;4.75;3.22;;;4.20;99.90;;;;;;5033238;28;20100;-74
2024/02/21 06:56:28;;;;;;;6.80;2.20;;;4.30;99.90;;;;;;5032154;28;20068;-76
2024/02/21 06:58:55;;;;;;;7.32;2.30;;;4.40;99.90;;;;;;5033333;28;20124;-74
2024/02/21 07:01:21;;;;;;;3.70;2.10;;;4.40;99.90;;;;;;5033150;28;20033;-75
2024/02/21 07:03:46;;;;;;;3.97;2.28;;;4.50;99.90;;;;;;5033428;28;20021;-74
2024/02/21 07:06:12;;;;;;;5.28;2.72;;;4.60;99.90;;;;;;5032737;28;20030;-75
2024/02/21 07:08:38;;;;;;;5.28;2.55;;;4.70;99.90;;;;;;5032023;28;20026;-74
2024/02/21 07:11:04;;;;;;;6.50;2.53;;;4.80;99.90;;;;;;5031784;28;20108;-73
2024/02/21 07:13:30;;;;;;;3.53;2.17;;;4.90;99.90;;;;;;5032142;28;20071;-74
2024/02/21 07:15:56;;;;;;;4.82;2.47;;;4.90;99.90;;;;;;5033622;28;20018;-75
2024/02/21 07:18:21;;;;;;;8.35;2.55;;;5.00;99.90;;;;;;5031962;28;20623;-75
2024/02/21 07:20:47;;;;;;;3.22;2.28;;;5.10;99.90;;;;;;5032899;28;20025;-76
2024/02/21 07:23:12;;;;;;;3.85;2.22;;;5.10;99.90;;;;;;5033124;28;20365;-75
2024/02/21 07:25:39;;;;;;;7.40;2.65;;;5.10;99.90;;;;;;5034415;28;20022;-77
2024/02/21 07:28:06;;;;;;;7.68;2.92;;;6.60;99.90;;;;;;5033556;28;20049;-77
2024/02/21 07:30:32;;;;;;;11.23;2.80;;;6.50;99.90;;;;;;5035554;28;20021;-78
2024/02/21 07:32:57;;;;;;;5.47;3.05;;;6.30;99.90;;;;;;5036125;28;20028;-77
2024/02/21 07:35:23;;;;;;;5.15;1.85;;;6.10;99.90;;;;;;5035683;28;20150;-77
2024/02/21 07:37:49;;;;;;;5.32;2.25;;;6.10;99.90;;;;;;5035954;28;20021;-77
2024/02/21 07:40:15;;;;;;;4.63;2.28;;;6.10;99.90;;;;;;5034774;28;20476;-75
2024/02/21 07:42:41;;;;;;;6.72;2.85;;;6.20;99.90;;;;;;5033865;28;20022;-80
2024/02/21 07:45:08;;;;;;;8.05;3.25;;;6.20;99.90;;;;;;5036473;28;20029;-77
2024/02/21 07:47:34;;;;;;;2.33;1.92;;;6.20;99.90;;;;;;5036343;28;20083;-77
2024/02/21 07:50:00;;;;;;;6.15;3.33;;;6.70;99.90;;;;;;5036653;28;20026;-77
2024/02/21 07:52:25;;;;;;;5.57;2.38;;;8.50;99.90;;;;;;5040469;28;20468;-77
2024/02/21 07:54:51;;;;;;;5.75;2.40;;;8.80;99.30;;;;;;5042583;28;20021;-77
2024/02/21 07:57:17;;;;;;;2.55;1.67;;;8.30;97.40;;;;;;5044617;28;20040;-76
2024/02/21 07:59:43;;;;;;;4.13;2.17;;;8.00;96.90;;;;;;5044293;28;20503;-77
2024/02/21 08:02:08;;;;;;;4.43;2.55;;;7.70;97.60;;;;;;5034312;28;20582;-77
2024/02/21 08:04:34;;;;;;;4.95;2.55;;;7.50;97.50;;;;;;5032083;28;20025;-77
2024/02/21 08:07:02;;;;;;;8.05;2.78;;;7.40;99.10;;;;;;5034492;28;20061;-76
2024/02/21 08:09:28;;;;;;;7.40;3.92;;;7.30;99.00;;;;;;5034818;28;20023;-79
2024/02/21 08:11:57;;;;;;;6.95;2.83;;;7.20;99.60;;;;;;5034486;28;20113;-76
2024/02/21 08:14:24;;;;;;;5.95;2.17;;;7.20;99.90;;;;;;5037695;28;20424;-76
2024/02/21 08:16:54;;;;;;;3.50;2.10;;;8.00;99.90;;;;;;5036852;28;20033;-77
2024/02/21 08:19:21;;;;;;;5.05;2.38;;;7.90;99.90;;;;;;5032628;28;20048;-76
2024/02/21 08:21:49;;;;;;;9.48;2.42;;;8.00;99.90;;;;;;5032608;28;20028;-77
2024/02/21 08:24:15;;;;;;;3.38;2.15;;;8.00;99.60;;;;;;5031310;28;20034;-79
2024/02/21 08:26:44;;;;;;;9.15;2.60;;;7.90;99.20;;;;;;5032185;28;20029;-75
2024/02/21 08:29:11;;;;;;;4.18;2.20;;;7.80;98.60;;;;;;5030053;28;20365;-75
2024/02/21 08:31:37;;;;;;;4.95;1.20;;;7.80;98.10;;;;;;5030741;28;20053;-76
2024/02/21 08:34:03;;;;;;;2.88;1.52;;;7.80;94.60;;;;;;5030737;28;20061;-76
2024/02/21 08:36:30;;;;;;;2.70;1.27;;;7.90;94.70;;;;;;5031915;28;20091;-75
2024/02/21 08:38:56;;;;;;;6.32;1.27;;;8.00;93.40;;;;;;5030588;28;20053;-75
2024/02/21 08:41:23;;;;;;;1.52;1.10;;;8.10;91.70;;;;;;5031896;28;20021;-77
2024/02/21 08:43:50;;;;;;;2.67;1.35;;;9.20;99.90;;;;;;5031313;28;20084;-76
2024/02/21 08:46:16;;;;;;;1.35;1.10;;;10.20;94.20;;;;;;5031274;28;20040;-76
2024/02/21 08:48:44;;;;;;;7.25;1.65;;;10.50;91.30;;;;;;5032364;28;20022;-74
2024/02/21 08:51:09;;;;;;;7.88;1.75;;;10.30;78.70;;;;;;5030828;28;20026;-75
2024/02/21 08:53:35;;;;;;;1.45;1.35;;;10.10;75.40;;;;;;5031540;28;20157;-75
2024/02/21 08:56:00;;;;;;;2.47;1.00;;;10.00;81.90;;;;;;5033109;28;20024;-76
2024/02/21 08:58:26;;;;;;;3.80;1.20;;;9.80;77.50;;;;;;5033149;28;20032;-74
2024/02/21 09:00:52;;;;;;;0.73;0.55;;;9.70;76.60;;;;;;5031483;28;20075;-74
2024/02/21 09:03:19;;;;;;;4.57;2.55;;;9.60;72.50;;;;;;5033426;28;20052;-74
2024/02/21 09:05:46;;;;;;;4.63;2.03;;;9.60;73.90;;;;;;5034457;28;20400;-75
2024/02/21 09:08:12;;;;;;;9.32;3.20;;;9.70;72.20;;;;;;5035670;28;20076;-74
2024/02/21 09:10:37;;;;;;;7.60;4.10;;;9.80;73.70;;;;;;5036668;28;20022;-75
2024/02/21 09:13:03;;;;;;;3.20;0.90;;;9.90;70.40;;;;;;5036752;28;20040;-75
2024/02/21 09:15:29;;;;;;;1.00;0.60;;;10.00;68.60;;;;;;5034763;28;20117;-75
2024/02/21 09:17:55;;;;;;;2.92;1.55;;;10.10;65.80;;;;;;5036946;28;20025;-75
2024/02/21 09:20:20;;;;;;;2.95;1.65;;;10.20;65.30;;;;;;5036188;28;20080;-74
2024/02/21 09:22:46;;;;;;;15.43;5.40;;;10.20;66.10;;;;;;5035985;28;20025;-74
2024/02/21 09:25:12;;;;;;;1.75;1.52;;;10.40;64.60;;;;;;5036117;28;20144;-75
2024/02/21 09:27:38;;;;;;;9.65;4.00;;;10.50;64.10;;;;;;5036151;28;20036;-76
2024/02/21 09:30:05;;;;;;;4.68;2.50;;;10.60;63.10;;;;;;5035956;28;20080;-73
2024/02/21 09:32:32;;;;;;;1.85;1.00;;;10.70;64.60;;;;;;5034604;28;20052;-76
2024/02/21 09:34:58;;;;;;;6.43;3.60;;;10.70;61.10;;;;;;5036183;28;20053;-73
2024/02/21 09:37:24;;;;;;;3.78;1.90;;;10.90;61.60;;;;;;5036122;28;20467;-75
2024/02/21 09:39:52;;;;;;;3.92;1.50;;;10.90;61.60;;;;;;5034935;28;20029;-74
2024/02/21 09:42:20;;;;;;;6.85;3.38;;;11.10;59.80;;;;;;5034911;28;20033;-75
2024/02/21 09:44:46;;;;;;;5.75;2.95;;;11.10;59.60;;;;;;5035616;28;20083;-76
2024/02/21 09:47:45;;;;;;;7.00;3.95;;;11.30;61.40;;;;;;5035615;28;20646;-74
2024/02/21 09:50:12;;;;;;;5.60;1.95;;;11.40;59.90;;;;;;5033869;28;20021;-74
2024/02/21 09:52:38;;;;;;;3.88;0.80;;;11.60;60.30;;;;;;5035621;28;20025;-74
2024/02/21 09:55:06;;;;;;;2.08;1.85;;;11.70;58.00;;;;;;5035150;28;20022;-74
2024/02/21 09:57:31;;;;;;;1.25;0.75;;;11.70;57.40;;;;;;5035534;28;20026;-74
2024/02/21 09:59:59;;;;;;;2.22;1.00;;;11.80;57.80;;;;;;5034411;28;20487;-73
2024/02/21 10:02:24;;;;;;;2.25;1.10;;;11.90;57.20;;;;;;5033783;28;20021;-74
2024/02/21 10:04:50;;;;;;;3.80;0.60;;;11.90;56.60;;;;;;5035094;28;20022;-73
2024/02/21 10:07:16;;;;;;;8.05;5.05;;;12.00;55.70;;;;;;5035196;28;20032;-74
2024/02/21 10:09:42;;;;;;;17.45;7.75;;;12.00;54.30;;;;;;5035207;28;20032;-74
2024/02/21 10:12:11;;;;;;;6.55;2.38;;;12.00;55.30;;;;;;5034919;28;20025;-74
2024/02/21 10:14:38;;;;;;;0.95;0.85;;;12.10;55.10;;;;;;5035292;28;20022;-73
2024/02/21 10:17:09;;;;;;;2.40;0.60;;;12.10;55.20;;;;;;5033870;28;20036;-75
2024/02/21 10:19:35;;;;;;;0.90;0.52;;;12.20;54.50;;;;;;5034955;28;20028;-74
2024/02/21 10:22:10;;;;;;;1.02;0.65;;;12.20;53.90;;;;;;5034429;28;20025;-74
2024/02/21 10:24:42;;;;;;;2.85;1.08;;;12.30;52.90;;;;;;5034589;28;20057;-74
2024/02/21 10:27:10;;;;;;;1.63;1.02;;;12.30;52.40;;;;;;5033000;28;20030;-74
2024/02/21 10:29:36;;;;;;;2.33;1.25;;;12.30;52.20;;;;;;5034649;28;20022;-74
2024/02/21 10:32:11;;;;;;;4.05;1.20;;;12.30;53.10;;;;;;5032970;28;20035;-74
2024/02/21 10:34:39;;;;;;;5.30;1.85;;;12.30;51.60;;;;;;5034718;28;20021;-75
2024/02/21 10:37:06;;;;;;;1.75;1.10;;;12.20;49.40;;;;;;5033164;28;20030;-74
2024/02/21 10:39:33;;;;;;;4.70;2.40;;;12.10;49.00;;;;;;5034103;28;20025;-73
2024/02/21 10:42:03;;;;;;;0.40;0.35;;;12.10;49.80;;;;;;5033220;28;20032;-74
2024/02/21 10:44:31;;;;;;;1.25;0.30;;;12.10;45.50;;;;;;5034629;28;20029;-73
2024/02/21 10:46:57;;;;;;;0.75;0.25;;;12.30;44.50;;;;;;5035123;28;20380;-76
2024/02/21 10:49:28;;;;;;;1.77;0.77;;;12.40;44.10;;;;;;5034647;28;20022;-74
2024/02/21 10:52:13;;;;;;;1.20;0.70;;;12.60;44.70;;;;;;5034134;28;20487;-73
2024/02/21 10:54:52;;;;;;;2.67;0.95;;;12.90;44.40;;;;;;5034312;28;20025;-74
2024/02/21 10:57:19;;;;;;;2.65;1.83;;;13.10;42.80;;;;;;5034261;28;20037;-73
2024/02/21 10:59:45;;;;;;;5.22;1.77;;;13.20;44.20;;;;;;5032553;28;20030;-74
2024/02/21 11:02:11;;;;;;;2.95;1.50;;;13.20;41.80;;;;;;5033204;28;20040;-73
2024/02/21 11:04:37;;;;;;;4.35;1.88;;;13.00;42.00;;;;;;5033587;28;20025;-73
2024/02/21 11:07:07;;;;;;;1.33;1.05;;;13.10;44.80;;;;;;5032085;28;20438;-73
2024/02/21 11:09:33;;;;;;;3.95;1.85;;;13.20;45.10;;;;;;5033268;28;20035;-74
2024/02/21 11:12:03;;;;;;;6.85;3.67;;;13.30;43.80;;;;;;5031870;28;20476;-73
2024/02/21 11:14:32;;;;;;;8.48;4.28;;;13.30;41.30;;;;;;5033073;28;20025;-76
2024/02/21 11:16:58;;;;;;;6.93;3.03;;;13.50;40.20;;;;;;5031661;28;20030;-72
2024/02/21 11:19:28;;;;;;;2.75;1.00;;;13.40;42.00;;;;;;5033098;28;20040;-75
2024/02/21 11:21:55;;;;;;;1.20;1.17;;;13.50;43.50;;;;;;5032966;28;20033;-73
2024/02/21 11:24:34;;;;;;;0.35;0.35;;;13.60;43.90;;;;;;5031765;28;20136;-74
2024/02/21 11:27:13;;;;;;;1.88;0.55;;;13.70;45.20;;;;;;5031600;28;20022;-73
2024/02/21 11:29:46;;;;;;;4.57;0.80;;;13.80;44.10;;;;;;5034033;28;20049;-75
2024/02/21 11:32:15;;;;;;;1.60;1.10;;;13.80;43.10;;;;;;5033036;28;20028;-74
2024/02/21 11:34:41;;;;;;;3.17;1.83;;;13.80;41.90;;;;;;5031662;28;20022;-74
2024/02/21 11:37:17;;;;;;;1.55;0.90;;;13.60;43.30;;;;;;5031685;28;20022;-74
2024/02/21 11:39:43;;;;;;;0.52;0.38;;;13.50;42.40;;;;;;5033388;28;20029;-74
2024/02/21 11:42:09;;;;;;;2.95;0.60;;;13.30;42.20;;;;;;5032576;28;20502;-74
2024/02/21 11:44:42;;;;;;;2.55;1.85;;;13.10;41.40;;;;;;5031455;28;20096;-73
2024/02/21 11:47:08;;;;;;;3.60;1.88;;;13.30;41.90;;;;;;5033053;28;20037;-74
2024/02/21 11:49:49;;;;;;;1.75;1.08;;;13.40;42.20;;;;;;5032924;28;20073;-74
2024/02/21 11:52:18;;;;;;;4.57;1.63;;;13.30;44.00;;;;;;5031447;28;20017;-74
2024/02/21 11:54:44;;;;;;;4.28;2.72;;;13.20;45.60;;;;;;5032582;28;20044;-73
2024/02/21 11:57:13;;;;;;;1.88;0.70;;;13.10;45.70;;;;;;5032685;28;20495;-74
2024/02/21 11:59:40;;;;;;;2.58;0.32;;;13.00;44.20;;;;;;5033038;28;20025;-74
2024/02/21 12:02:07;;;;;;;1.05;0.63;;;13.00;45.00;;;;;;5031990;28;20401;-74
2024/02/21 12:04:33;;;;;;;4.15;2.42;;;13.20;56.80;;;;;;5032333;28;20025;-74
2024/02/21 12:06:59;;;;;;;0.88;0.82;;;13.40;62.70;;;;;;5032337;28;20391;-74
2024/02/21 12:09:25;;;;;;;0.80;0.70;;;13.50;46.20;;;;;;5033019;28;20017;-74
2024/02/21 12:12:05;;;;;;;5.45;2.45;;;13.50;44.70;;;;;;5031662;28;20026;-74
2024/02/21 12:14:33;;;;;;;2.72;1.55;;;13.40;45.70;;;;;;5032799;28;20017;-75
2024/02/21 12:17:01;;;;;;;2.78;1.90;;;13.30;44.50;;;;;;5032750;28;20518;-75
2024/02/21 12:19:29;;;;;;;5.15;2.15;;;13.30;43.70;;;;;;5032610;28;20022;-75
2024/02/21 12:21:55;;;;;;;1.20;0.80;;;13.40;45.00;;;;;;5032384;28;20033;-75
2024/02/21 12:24:25;;;;;;;0.93;0.68;;;13.50;44.40;;;;;;5032385;28;20025;-75
2024/02/21 12:26:54;;;;;;;3.10;1.00;;;13.80;44.30;;;;;;5032300;28;20484;-74
2024/02/21 12:29:21;;;;;;;2.25;1.35;;;13.80;42.30;;;;;;5032603;28;20056;-74
2024/02/21 12:31:47;;;;;;;4.13;1.30;;;14.00;42.30;;;;;;5030865;28;20030;-75
2024/02/21 12:34:13;;;;;;;3.47;1.70;;;14.10;41.00;;;;;;5032344;28;20095;-74
2024/02/21 12:36:43;;;;;;;1.50;0.60;;;14.10;39.70;;;;;;5032491;28;20038;-75
2024/02/21 12:39:12;;;;;;;0.45;0.30;;;14.10;40.70;;;;;;5031236;28;20029;-74
2024/02/21 12:41:40;;;;;;;0.80;0.80;;;14.10;40.50;;;;;;5035762;28;20439;-75
2024/02/21 12:44:10;;;;;;;0.45;0.45;;;14.10;42.50;;;;;;5034693;28;20029;-74
2024/02/21 12:46:37;;;;;;;3.88;1.60;;;14.00;39.30;;;;;;5036744;28;20108;-74
2024/02/21 12:49:03;;;;;;;1.75;1.27;;;13.80;40.20;;;;;;5034992;28;20108;-75